sensor_id;sensor_type;location;lat;lon;timestamp;pressure;altitude;pressure_sealevel;temperature;humidity
47430;BME280;33181;49.246;7.372;2023-07-16T00:01:47;98614.78;;;18.56;100.00
47430;BME280;33181;49.246;7.372;2023-07-16T00:04:15;98604.00;;;18.57;100.00
47430;BME280;33181;49.246;7.372;2023-07-16T00:06:40;98600.31;;;18.58;100.00
47430;BME280;33181;49.246;7.372;2023-07-16T00:09:06;98584.03;;;18.53;100.00
47430;BME280;33181;49.246;7.372;2023-07-16T00:11:32;98572.47;;;18.46;100.00
47430;BME280;33181;49.246;7.372;2023-07-16T00:13:59;98608.53;;;18.48;100.00
47430;BME280;33181;49.246;7.372;2023-07-16T00:16:24;98619.19;;;18.48;100.00
47430;BME280;33181;49.246;7.372;2023-07-16T00:18:50;98618.50;;;18.46;100.00
47430;BME280;33181;49.246;7.372;2023-07-16T00:21:16;98587.16;;;18.42;100.00
47430;BME280;33181;49.246;7.372;2023-07-16T00:23:42;98571.28;;;18.48;100.00
47430;BME280;33181;49.246;7.372;2023-07-16T00:26:09;98605.31;;;18.53;100.00
47430;BME280;33181;49.246;7.372;2023-07-16T00:28:35;98612.22;;;18.47;100.00
47430;BME280;33181;49.246;7.372;2023-07-16T00:31:01;98631.81;;;18.46;100.00
47430;BME280;33181;49.246;7.372;2023-07-16T00:33:27;98640.03;;;18.37;100.00
47430;BME280;33181;49.246;7.372;2023-07-16T00:35:53;98647.84;;;18.38;100.00
47430;BME280;33181;49.246;7.372;2023-07-16T00:38:19;98648.22;;;18.27;100.00
47430;BME280;33181;49.246;7.372;2023-07-16T00:40:46;98651.59;;;18.21;100.00
47430;BME280;33181;49.246;7.372;2023-07-16T00:43:12;98661.63;;;18.11;100.00
47430;BME280;33181;49.246;7.372;2023-07-16T00:45:39;98672.94;;;18.13;100.00
47430;BME280;33181;49.246;7.372;2023-07-16T00:48:06;98667.84;;;17.95;100.00
47430;BME280;33181;49.246;7.372;2023-07-16T00:50:36;98666.19;;;17.94;100.00
47430;BME280;33181;49.246;7.372;2023-07-16T00:53:06;98662.00;;;17.99;100.00
47430;BME280;33181;49.246;7.372;2023-07-16T00:55:34;98669.56;;;17.88;100.00
47430;BME280;33181;49.246;7.372;2023-07-16T00:58:05;98676.72;;;17.79;100.00
47430;BME280;33181;49.246;7.372;2023-07-16T01:00:41;98676.69;;;17.71;100.00
47430;BME280;33181;49.246;7.372;2023-07-16T01:03:10;98674.03;;;17.71;100.00
47430;BME280;33181;49.246;7.372;2023-07-16T01:05:47;98692.31;;;17.74;100.00
47430;BME280;33181;49.246;7.372;2023-07-16T01:08:21;98689.34;;;17.77;100.00
47430;BME280;33181;49.246;7.372;2023-07-16T01:10:48;98690.81;;;17.71;100.00
47430;BME280;33181;49.246;7.372;2023-07-16T01:13:15;98695.97;;;17.73;100.00
47430;BME280;33181;49.246;7.372;2023-07-16T01:15:41;98694.97;;;17.74;100.00
47430;BME280;33181;49.246;7.372;2023-07-16T01:18:07;98696.97;;;17.72;100.00
47430;BME280;33181;49.246;7.372;2023-07-16T01:20:32;98701.63;;;17.61;100.00
47430;BME280;33181;49.246;7.372;2023-07-16T01:31:18;98703.47;;;17.61;100.00
47430;BME280;33181;49.246;7.372;2023-07-16T01:33:45;98707.94;;;17.52;100.00
47430;BME280;33181;49.246;7.372;2023-07-16T01:36:11;98702.97;;;17.49;100.00
47430;BME280;33181;49.246;7.372;2023-07-16T01:38:37;98697.38;;;17.44;100.00
47430;BME280;33181;49.246;7.372;2023-07-16T01:41:05;98709.47;;;17.38;100.00
47430;BME280;33181;49.246;7.372;2023-07-16T01:43:31;98710.16;;;17.32;100.00
47430;BME280;33181;49.246;7.372;2023-07-16T01:45:56;98703.19;;;17.31;100.00
47430;BME280;33181;49.246;7.372;2023-07-16T01:48:34;98714.63;;;17.32;100.00
47430;BME280;33181;49.246;7.372;2023-07-16T01:51:02;98718.13;;;17.41;100.00
47430;BME280;33181;49.246;7.372;2023-07-16T01:53:28;98716.09;;;17.43;100.00
47430;BME280;33181;49.246;7.372;2023-07-16T01:55:53;98718.94;;;17.33;100.00
47430;BME280;33181;49.246;7.372;2023-07-16T01:58:19;98717.44;;;17.38;100.00
47430;BME280;33181;49.246;7.372;2023-07-16T02:00:45;98722.44;;;17.42;100.00
47430;BME280;33181;49.246;7.372;2023-07-16T02:03:11;98720.59;;;17.42;100.00
47430;BME280;33181;49.246;7.372;2023-07-16T02:05:37;98727.25;;;17.38;100.00
47430;BME280;33181;49.246;7.372;2023-07-16T02:08:03;98727.06;;;17.48;100.00
47430;BME280;33181;49.246;7.372;2023-07-16T02:10:29;98736.72;;;17.32;100.00
47430;BME280;33181;49.246;7.372;2023-07-16T02:12:55;98731.25;;;17.34;100.00
47430;BME280;33181;49.246;7.372;2023-07-16T02:15:20;98731.41;;;17.32;100.00
47430;BME280;33181;49.246;7.372;2023-07-16T02:17:47;98731.06;;;17.27;100.00
47430;BME280;33181;49.246;7.372;2023-07-16T02:20:13;98734.38;;;17.37;100.00
47430;BME280;33181;49.246;7.372;2023-07-16T02:22:39;98747.00;;;17.44;100.00
47430;BME280;33181;49.246;7.372;2023-07-16T02:25:06;98736.53;;;17.50;100.00
47430;BME280;33181;49.246;7.372;2023-07-16T02:27:31;98740.69;;;17.53;99.94
47430;BME280;33181;49.246;7.372;2023-07-16T02:29:57;98743.34;;;17.53;99.14
47430;BME280;33181;49.246;7.372;2023-07-16T02:32:23;98748.13;;;17.49;99.35
47430;BME280;33181;49.246;7.372;2023-07-16T02:34:49;98749.81;;;17.50;99.55
47430;BME280;33181;49.246;7.372;2023-07-16T02:37:15;98749.13;;;17.40;99.50
47430;BME280;33181;49.246;7.372;2023-07-16T02:39:44;98755.78;;;17.44;99.44
47430;BME280;33181;49.246;7.372;2023-07-16T02:42:10;98759.78;;;17.32;99.37
47430;BME280;33181;49.246;7.372;2023-07-16T02:44:36;98746.97;;;17.27;100.00
47430;BME280;33181;49.246;7.372;2023-07-16T02:47:07;98758.78;;;17.33;99.91
47430;BME280;33181;49.246;7.372;2023-07-16T02:49:33;98753.97;;;17.28;99.56
47430;BME280;33181;49.246;7.372;2023-07-16T02:51:59;98750.47;;;17.20;99.86
47430;BME280;33181;49.246;7.372;2023-07-16T02:54:24;98759.75;;;17.24;100.00
47430;BME280;33181;49.246;7.372;2023-07-16T02:56:50;98756.94;;;17.17;100.00
47430;BME280;33181;49.246;7.372;2023-07-16T02:59:16;98754.13;;;17.10;100.00
47430;BME280;33181;49.246;7.372;2023-07-16T03:01:43;98757.94;;;17.16;100.00
47430;BME280;33181;49.246;7.372;2023-07-16T03:04:09;98756.59;;;16.96;100.00
47430;BME280;33181;49.246;7.372;2023-07-16T03:06:34;98748.31;;;16.99;100.00
47430;BME280;33181;49.246;7.372;2023-07-16T03:09:00;98746.66;;;16.98;100.00
47430;BME280;33181;49.246;7.372;2023-07-16T03:11:26;98756.13;;;17.00;100.00
47430;BME280;33181;49.246;7.372;2023-07-16T03:13:51;98756.28;;;16.90;100.00
47430;BME280;33181;49.246;7.372;2023-07-16T03:16:17;98761.75;;;16.97;100.00
47430;BME280;33181;49.246;7.372;2023-07-16T03:18:44;98765.75;;;16.93;100.00
47430;BME280;33181;49.246;7.372;2023-07-16T03:21:11;98770.53;;;16.89;100.00
47430;BME280;33181;49.246;7.372;2023-07-16T03:23:38;98764.88;;;16.92;100.00
47430;BME280;33181;49.246;7.372;2023-07-16T03:26:04;98772.34;;;16.89;100.00
47430;BME280;33181;49.246;7.372;2023-07-16T03:28:30;98785.78;;;16.96;100.00
47430;BME280;33181;49.246;7.372;2023-07-16T03:30:56;98777.69;;;16.97;100.00
47430;BME280;33181;49.246;7.372;2023-07-16T03:33:21;98777.19;;;16.94;100.00
47430;BME280;33181;49.246;7.372;2023-07-16T03:35:49;98783.81;;;16.98;100.00
47430;BME280;33181;49.246;7.372;2023-07-16T03:38:15;98787.63;;;16.95;100.00
47430;BME280;33181;49.246;7.372;2023-07-16T03:40:48;98798.41;;;16.94;100.00
47430;BME280;33181;49.246;7.372;2023-07-16T03:43:15;98799.56;;;16.91;100.00
47430;BME280;33181;49.246;7.372;2023-07-16T03:45:41;98807.41;;;16.66;100.00
47430;BME280;33181;49.246;7.372;2023-07-16T03:48:07;98817.72;;;16.69;100.00
47430;BME280;33181;49.246;7.372;2023-07-16T03:50:34;98811.47;;;16.79;100.00
47430;BME280;33181;49.246;7.372;2023-07-16T03:53:02;98814.81;;;16.89;100.00
47430;BME280;33181;49.246;7.372;2023-07-16T03:55:29;98811.81;;;16.92;100.00
47430;BME280;33181;49.246;7.372;2023-07-16T03:57:55;98807.31;;;16.76;100.00
47430;BME280;33181;49.246;7.372;2023-07-16T04:00:21;98813.97;;;16.88;100.00
47430;BME280;33181;49.246;7.372;2023-07-16T04:02:47;98818.09;;;16.83;100.00
47430;BME280;33181;49.246;7.372;2023-07-16T04:05:13;98811.69;;;16.94;100.00
47430;BME280;33181;49.246;7.372;2023-07-16T04:07:38;98812.75;;;16.75;99.90
47430;BME280;33181;49.246;7.372;2023-07-16T04:10:08;98823.09;;;16.86;100.00
47430;BME280;33181;49.246;7.372;2023-07-16T04:12:33;98820.25;;;16.79;100.00
47430;BME280;33181;49.246;7.372;2023-07-16T04:15:00;98819.59;;;16.77;99.68
47430;BME280;33181;49.246;7.372;2023-07-16T04:17:26;98829.81;;;16.72;99.52
47430;BME280;33181;49.246;7.372;2023-07-16T04:19:52;98822.91;;;16.79;100.00
47430;BME280;33181;49.246;7.372;2023-07-16T04:22:18;98825.22;;;16.82;99.62
47430;BME280;33181;49.246;7.372;2023-07-16T04:24:43;98820.59;;;16.84;99.61
47430;BME280;33181;49.246;7.372;2023-07-16T04:27:09;98824.44;;;16.90;99.67
47430;BME280;33181;49.246;7.372;2023-07-16T04:29:35;98823.25;;;16.92;98.78
47430;BME280;33181;49.246;7.372;2023-07-16T04:32:01;98828.78;;;16.99;98.82
47430;BME280;33181;49.246;7.372;2023-07-16T04:34:28;98833.91;;;17.01;98.11
47430;BME280;33181;49.246;7.372;2023-07-16T04:36:54;98838.72;;;16.97;98.53
47430;BME280;33181;49.246;7.372;2023-07-16T04:39:19;98837.91;;;17.13;98.29
47430;BME280;33181;49.246;7.372;2023-07-16T04:41:45;98836.75;;;17.24;96.89
47430;BME280;33181;49.246;7.372;2023-07-16T04:44:11;98846.22;;;17.18;96.55
47430;BME280;33181;49.246;7.372;2023-07-16T04:46:36;98849.53;;;17.20;95.94
47430;BME280;33181;49.246;7.372;2023-07-16T04:49:04;98849.50;;;17.04;96.87
47430;BME280;33181;49.246;7.372;2023-07-16T04:51:30;98843.06;;;17.06;97.41
47430;BME280;33181;49.246;7.372;2023-07-16T04:53:56;98856.97;;;17.08;97.30
47430;BME280;33181;49.246;7.372;2023-07-16T04:56:21;98853.00;;;17.04;97.95
47430;BME280;33181;49.246;7.372;2023-07-16T04:58:47;98848.81;;;17.02;98.17
47430;BME280;33181;49.246;7.372;2023-07-16T05:01:13;98850.19;;;17.06;98.04
47430;BME280;33181;49.246;7.372;2023-07-16T05:03:39;98854.50;;;17.23;97.19
47430;BME280;33181;49.246;7.372;2023-07-16T05:06:05;98851.22;;;17.29;96.12
47430;BME280;33181;49.246;7.372;2023-07-16T05:08:31;98862.00;;;17.36;94.98
47430;BME280;33181;49.246;7.372;2023-07-16T05:10:57;98871.81;;;17.52;94.96
47430;BME280;33181;49.246;7.372;2023-07-16T05:13:23;98864.81;;;17.59;92.93
47430;BME280;33181;49.246;7.372;2023-07-16T05:15:48;98868.34;;;17.76;91.85
47430;BME280;33181;49.246;7.372;2023-07-16T05:18:16;98871.00;;;17.84;91.34
47430;BME280;33181;49.246;7.372;2023-07-16T05:20:41;98873.97;;;17.56;90.90
47430;BME280;33181;49.246;7.372;2023-07-16T05:23:09;98878.94;;;17.68;92.05
47430;BME280;33181;49.246;7.372;2023-07-16T05:25:34;98883.91;;;17.46;90.89
47430;BME280;33181;49.246;7.372;2023-07-16T05:28:00;98875.63;;;17.57;92.43
47430;BME280;33181;49.246;7.372;2023-07-16T05:30:26;98869.81;;;17.62;91.33
47430;BME280;33181;49.246;7.372;2023-07-16T05:32:52;98868.84;;;17.96;90.80
47430;BME280;33181;49.246;7.372;2023-07-16T05:35:17;98860.88;;;18.04;89.42
47430;BME280;33181;49.246;7.372;2023-07-16T05:37:43;98873.16;;;18.05;88.02
47430;BME280;33181;49.246;7.372;2023-07-16T05:40:09;98870.66;;;18.03;86.36
47430;BME280;33181;49.246;7.372;2023-07-16T05:42:35;98880.25;;;18.29;87.02
47430;BME280;33181;49.246;7.372;2023-07-16T05:45:01;98881.56;;;18.33;84.40
47430;BME280;33181;49.246;7.372;2023-07-16T05:47:27;98889.69;;;18.48;84.44
47430;BME280;33181;49.246;7.372;2023-07-16T05:49:52;98887.25;;;18.69;83.59
47430;BME280;33181;49.246;7.372;2023-07-16T05:52:18;98888.69;;;18.96;82.69
47430;BME280;33181;49.246;7.372;2023-07-16T05:54:44;98886.97;;;18.64;82.37
47430;BME280;33181;49.246;7.372;2023-07-16T05:57:10;98884.75;;;18.84;83.50
47430;BME280;33181;49.246;7.372;2023-07-16T05:59:36;98892.50;;;18.94;81.34
47430;BME280;33181;49.246;7.372;2023-07-16T06:02:04;98892.13;;;18.74;81.13
47430;BME280;33181;49.246;7.372;2023-07-16T06:04:32;98891.28;;;18.73;82.34
47430;BME280;33181;49.246;7.372;2023-07-16T06:06:58;98892.97;;;18.66;80.95
47430;BME280;33181;49.246;7.372;2023-07-16T06:09:24;98895.31;;;19.01;80.46
47430;BME280;33181;49.246;7.372;2023-07-16T06:11:50;98887.19;;;19.25;81.27
47430;BME280;33181;49.246;7.372;2023-07-16T06:14:16;98885.63;;;19.08;78.15
47430;BME280;33181;49.246;7.372;2023-07-16T06:16:42;98887.88;;;19.19;79.50
47430;BME280;33181;49.246;7.372;2023-07-16T06:19:08;98897.19;;;18.92;77.55
47430;BME280;33181;49.246;7.372;2023-07-16T06:21:34;98895.44;;;19.07;78.47
47430;BME280;33181;49.246;7.372;2023-07-16T06:24:01;98893.41;;;19.40;77.75
47430;BME280;33181;49.246;7.372;2023-07-16T06:26:26;98889.34;;;19.53;77.95
47430;BME280;33181;49.246;7.372;2023-07-16T06:28:52;98896.06;;;19.72;75.53
47430;BME280;33181;49.246;7.372;2023-07-16T06:31:18;98899.06;;;19.91;74.75
47430;BME280;33181;49.246;7.372;2023-07-16T06:33:44;98900.47;;;20.02;73.32
47430;BME280;33181;49.246;7.372;2023-07-16T06:36:13;98900.34;;;20.33;73.40
47430;BME280;33181;49.246;7.372;2023-07-16T06:38:39;98907.00;;;20.00;71.69
47430;BME280;33181;49.246;7.372;2023-07-16T06:41:05;98907.06;;;19.91;72.27
47430;BME280;33181;49.246;7.372;2023-07-16T06:43:33;98905.47;;;20.35;73.20
47430;BME280;33181;49.246;7.372;2023-07-16T06:45:58;98904.47;;;20.51;71.56
47430;BME280;33181;49.246;7.372;2023-07-16T06:48:24;98905.19;;;20.30;69.50
47430;BME280;33181;49.246;7.372;2023-07-16T06:50:50;98922.56;;;20.26;71.18
47430;BME280;33181;49.246;7.372;2023-07-16T06:53:16;98914.50;;;20.49;70.44
47430;BME280;33181;49.246;7.372;2023-07-16T06:55:42;98914.53;;;20.64;70.72
47430;BME280;33181;49.246;7.372;2023-07-16T06:58:13;98911.22;;;20.76;69.15
47430;BME280;33181;49.246;7.372;2023-07-16T07:00:39;98920.88;;;20.92;68.93
47430;BME280;33181;49.246;7.372;2023-07-16T07:03:05;98917.31;;;20.55;68.78
47430;BME280;33181;49.246;7.372;2023-07-16T07:05:30;98916.84;;;20.52;68.22
47430;BME280;33181;49.246;7.372;2023-07-16T07:07:56;98907.44;;;20.86;69.93
47430;BME280;33181;49.246;7.372;2023-07-16T07:10:22;98915.94;;;21.25;67.47
47430;BME280;33181;49.246;7.372;2023-07-16T07:12:48;98912.44;;;21.25;66.78
47430;BME280;33181;49.246;7.372;2023-07-16T07:15:13;98906.53;;;21.29;65.93
47430;BME280;33181;49.246;7.372;2023-07-16T07:17:39;98921.00;;;21.35;67.08
47430;BME280;33181;49.246;7.372;2023-07-16T07:20:08;98916.25;;;21.73;65.44
47430;BME280;33181;49.246;7.372;2023-07-16T07:22:34;98913.44;;;21.39;64.94
47430;BME280;33181;49.246;7.372;2023-07-16T07:25:02;98911.16;;;21.36;66.30
47430;BME280;33181;49.246;7.372;2023-07-16T07:27:28;98918.38;;;21.05;67.15
47430;BME280;33181;49.246;7.372;2023-07-16T07:29:54;98917.22;;;21.29;67.58
47430;BME280;33181;49.246;7.372;2023-07-16T07:32:21;98921.66;;;21.80;65.95
47430;BME280;33181;49.246;7.372;2023-07-16T07:34:47;98920.56;;;22.17;61.47
47430;BME280;33181;49.246;7.372;2023-07-16T07:37:13;98919.06;;;22.15;60.88
47430;BME280;33181;49.246;7.372;2023-07-16T07:39:39;98919.38;;;22.20;60.05
47430;BME280;33181;49.246;7.372;2023-07-16T07:42:05;98926.41;;;22.56;61.40
47430;BME280;33181;49.246;7.372;2023-07-16T07:44:32;98918.41;;;22.62;60.52
47430;BME280;33181;49.246;7.372;2023-07-16T07:46:58;98927.75;;;22.38;59.74
47430;BME280;33181;49.246;7.372;2023-07-16T07:49:24;98930.16;;;22.33;59.85
47430;BME280;33181;49.246;7.372;2023-07-16T07:51:49;98926.19;;;21.80;59.95
47430;BME280;33181;49.246;7.372;2023-07-16T07:54:15;98929.22;;;21.55;60.18
47430;BME280;33181;49.246;7.372;2023-07-16T07:56:42;98926.56;;;21.55;60.61
47430;BME280;33181;49.246;7.372;2023-07-16T07:59:08;98935.16;;;21.50;59.42
47430;BME280;33181;49.246;7.372;2023-07-16T08:01:33;98933.84;;;21.83;61.54
47430;BME280;33181;49.246;7.372;2023-07-16T08:03:59;98931.66;;;22.42;58.81
47430;BME280;33181;49.246;7.372;2023-07-16T08:06:26;98940.78;;;22.48;56.44
47430;BME280;33181;49.246;7.372;2023-07-16T08:08:52;98925.59;;;22.27;57.24
47430;BME280;33181;49.246;7.372;2023-07-16T08:11:18;98936.94;;;21.86;57.44
47430;BME280;33181;49.246;7.372;2023-07-16T08:13:44;98930.72;;;22.01;58.01
47430;BME280;33181;49.246;7.372;2023-07-16T08:16:10;98923.00;;;22.40;57.57
47430;BME280;33181;49.246;7.372;2023-07-16T08:18:37;98944.72;;;22.52;55.21
47430;BME280;33181;49.246;7.372;2023-07-16T08:21:03;98948.84;;;22.27;54.97
47430;BME280;33181;49.246;7.372;2023-07-16T08:23:29;98949.22;;;22.02;55.75
47430;BME280;33181;49.246;7.372;2023-07-16T08:25:54;98949.06;;;22.04;56.06
47430;BME280;33181;49.246;7.372;2023-07-16T08:28:20;98951.28;;;21.79;57.40
47430;BME280;33181;49.246;7.372;2023-07-16T08:30:47;98948.47;;;22.08;57.08
47430;BME280;33181;49.246;7.372;2023-07-16T08:33:14;98947.75;;;21.99;55.89
47430;BME280;33181;49.246;7.372;2023-07-16T08:35:41;98951.53;;;22.05;56.01
47430;BME280;33181;49.246;7.372;2023-07-16T08:38:07;98956.38;;;21.95;56.42
47430;BME280;33181;49.246;7.372;2023-07-16T08:40:39;98943.06;;;22.02;57.64
47430;BME280;33181;49.246;7.372;2023-07-16T08:43:06;98949.25;;;22.24;56.20
47430;BME280;33181;49.246;7.372;2023-07-16T08:45:40;98940.50;;;22.15;54.34
47430;BME280;33181;49.246;7.372;2023-07-16T08:48:08;98947.88;;;22.34;55.01
47430;BME280;33181;49.246;7.372;2023-07-16T08:50:35;98945.78;;;22.58;56.04
47430;BME280;33181;49.246;7.372;2023-07-16T08:53:05;98935.03;;;22.51;54.49
47430;BME280;33181;49.246;7.372;2023-07-16T08:55:32;98954.72;;;22.43;55.13
47430;BME280;33181;49.246;7.372;2023-07-16T08:57:58;98943.47;;;22.83;53.75
47430;BME280;33181;49.246;7.372;2023-07-16T09:00:26;98942.78;;;23.09;52.82
47430;BME280;33181;49.246;7.372;2023-07-16T09:02:52;98947.75;;;23.12;52.40
47430;BME280;33181;49.246;7.372;2023-07-16T09:05:22;98954.78;;;22.50;53.44
47430;BME280;33181;49.246;7.372;2023-07-16T09:07:49;98953.06;;;22.71;55.21
47430;BME280;33181;49.246;7.372;2023-07-16T09:10:15;98948.06;;;22.61;52.85
47430;BME280;33181;49.246;7.372;2023-07-16T09:12:43;98958.13;;;22.59;54.19
47430;BME280;33181;49.246;7.372;2023-07-16T09:15:10;98954.53;;;22.73;52.75
47430;BME280;33181;49.246;7.372;2023-07-16T09:17:36;98953.25;;;22.69;53.41
47430;BME280;33181;49.246;7.372;2023-07-16T09:20:04;98951.28;;;22.84;52.17
47430;BME280;33181;49.246;7.372;2023-07-16T09:22:33;98947.28;;;23.02;51.82
47430;BME280;33181;49.246;7.372;2023-07-16T09:25:01;98952.34;;;23.31;51.95
47430;BME280;33181;49.246;7.372;2023-07-16T09:27:31;98953.09;;;23.12;54.17
47430;BME280;33181;49.246;7.372;2023-07-16T09:29:57;98954.91;;;23.59;52.85
47430;BME280;33181;49.246;7.372;2023-07-16T09:32:36;98950.47;;;23.87;51.02
47430;BME280;33181;49.246;7.372;2023-07-16T09:35:09;98952.75;;;24.16;50.43
47430;BME280;33181;49.246;7.372;2023-07-16T09:37:37;98945.69;;;23.89;48.50
47430;BME280;33181;49.246;7.372;2023-07-16T09:40:06;98957.06;;;23.84;50.65
47430;BME280;33181;49.246;7.372;2023-07-16T09:42:38;98948.59;;;24.14;48.66
47430;BME280;33181;49.246;7.372;2023-07-16T09:45:06;98955.66;;;24.41;47.19
47430;BME280;33181;49.246;7.372;2023-07-16T09:47:34;98956.41;;;24.88;47.07
47430;BME280;33181;49.246;7.372;2023-07-16T09:50:04;98945.28;;;25.36;47.34
47430;BME280;33181;49.246;7.372;2023-07-16T09:52:32;98949.31;;;25.52;46.12
47430;BME280;33181;49.246;7.372;2023-07-16T09:55:02;98949.25;;;25.65;46.44
47430;BME280;33181;49.246;7.372;2023-07-16T09:57:34;98946.19;;;25.94;45.21
47430;BME280;33181;49.246;7.372;2023-07-16T10:00:08;98956.19;;;25.86;45.06
47430;BME280;33181;49.246;7.372;2023-07-16T10:02:41;98950.50;;;26.26;45.41
47430;BME280;33181;49.246;7.372;2023-07-16T10:05:28;98967.28;;;26.72;43.71
47430;BME280;33181;49.246;7.372;2023-07-16T10:07:56;98958.00;;;26.68;43.54
47430;BME280;33181;49.246;7.372;2023-07-16T10:10:43;98961.66;;;26.55;42.36
47430;BME280;33181;49.246;7.372;2023-07-16T10:13:12;98963.06;;;26.57;42.11
47430;BME280;33181;49.246;7.372;2023-07-16T10:15:39;98958.38;;;26.71;41.31
47430;BME280;33181;49.246;7.372;2023-07-16T10:18:05;98951.50;;;26.94;41.25
47430;BME280;33181;49.246;7.372;2023-07-16T10:20:33;98945.06;;;26.95;41.43
47430;BME280;33181;49.246;7.372;2023-07-16T10:23:14;98951.59;;;27.06;39.96
47430;BME280;33181;49.246;7.372;2023-07-16T10:25:41;98948.06;;;26.68;40.55
47430;BME280;33181;49.246;7.372;2023-07-16T10:28:22;98946.94;;;26.94;40.94
47430;BME280;33181;49.246;7.372;2023-07-16T10:30:50;98939.66;;;27.32;40.80
47430;BME280;33181;49.246;7.372;2023-07-16T10:33:15;98945.41;;;27.35;39.72
47430;BME280;33181;49.246;7.372;2023-07-16T10:35:42;98946.72;;;27.14;38.97
47430;BME280;33181;49.246;7.372;2023-07-16T10:38:08;98940.88;;;26.99;40.06
47430;BME280;33181;49.246;7.372;2023-07-16T10:40:45;98948.63;;;26.27;39.12
47430;BME280;33181;49.246;7.372;2023-07-16T10:43:12;98940.31;;;25.33;40.28
47430;BME280;33181;49.246;7.372;2023-07-16T10:45:39;98942.22;;;24.28;42.55
47430;BME280;33181;49.246;7.372;2023-07-16T10:48:05;98947.44;;;25.14;43.24
47430;BME280;33181;49.246;7.372;2023-07-16T10:50:35;98945.47;;;24.70;42.35
47430;BME280;33181;49.246;7.372;2023-07-16T10:53:01;98945.41;;;24.96;44.68
47430;BME280;33181;49.246;7.372;2023-07-16T10:55:29;98951.16;;;25.07;42.35
47430;BME280;33181;49.246;7.372;2023-07-16T10:57:56;98944.97;;;25.13;43.41
47430;BME280;33181;49.246;7.372;2023-07-16T11:00:22;98943.78;;;25.40;43.21
47430;BME280;33181;49.246;7.372;2023-07-16T11:02:50;98946.63;;;25.52;42.40
47430;BME280;33181;49.246;7.372;2023-07-16T11:05:19;98941.59;;;25.24;42.40
47430;BME280;33181;49.246;7.372;2023-07-16T11:07:46;98936.56;;;25.41;42.65
47430;BME280;33181;49.246;7.372;2023-07-16T11:10:14;98947.28;;;25.48;42.40
47430;BME280;33181;49.246;7.372;2023-07-16T11:12:42;98940.69;;;24.85;42.93
47430;BME280;33181;49.246;7.372;2023-07-16T11:15:08;98940.94;;;24.70;43.84
47430;BME280;33181;49.246;7.372;2023-07-16T11:17:37;98949.03;;;24.57;44.58
47430;BME280;33181;49.246;7.372;2023-07-16T11:20:03;98951.28;;;24.34;42.80
47430;BME280;33181;49.246;7.372;2023-07-16T11:22:32;98950.88;;;24.10;43.68
47430;BME280;33181;49.246;7.372;2023-07-16T11:24:58;98947.38;;;24.23;43.86
47430;BME280;33181;49.246;7.372;2023-07-16T11:27:27;98938.91;;;24.26;44.95
47430;BME280;33181;49.246;7.372;2023-07-16T11:29:56;98956.88;;;24.12;43.57
47430;BME280;33181;49.246;7.372;2023-07-16T11:32:42;98946.34;;;24.04;44.23
47430;BME280;33181;49.246;7.372;2023-07-16T11:35:17;98955.63;;;24.61;45.05
47430;BME280;33181;49.246;7.372;2023-07-16T11:37:44;98939.09;;;25.29;45.53
47430;BME280;33181;49.246;7.372;2023-07-16T11:40:16;98936.19;;;26.01;40.67
47430;BME280;33181;49.246;7.372;2023-07-16T11:42:43;98932.13;;;25.92;41.56
47430;BME280;33181;49.246;7.372;2023-07-16T11:45:24;98937.03;;;26.51;42.06
47430;BME280;33181;49.246;7.372;2023-07-16T11:47:53;98934.84;;;26.60;39.36
47430;BME280;33181;49.246;7.372;2023-07-16T11:50:19;98929.31;;;26.55;39.06
47430;BME280;33181;49.246;7.372;2023-07-16T11:52:56;98929.09;;;25.75;40.03
47430;BME280;33181;49.246;7.372;2023-07-16T11:55:22;98923.50;;;26.08;42.32
47430;BME280;33181;49.246;7.372;2023-07-16T11:57:48;98927.72;;;25.97;39.84
47430;BME280;33181;49.246;7.372;2023-07-16T12:00:14;98930.06;;;25.55;41.16
47430;BME280;33181;49.246;7.372;2023-07-16T12:02:42;98924.91;;;25.54;43.19
47430;BME280;33181;49.246;7.372;2023-07-16T12:05:08;98921.03;;;25.75;42.14
47430;BME280;33181;49.246;7.372;2023-07-16T12:07:38;98924.25;;;25.90;42.63
47430;BME280;33181;49.246;7.372;2023-07-16T12:10:06;98925.47;;;25.24;41.44
47430;BME280;33181;49.246;7.372;2023-07-16T12:12:33;98920.31;;;25.23;43.97
47430;BME280;33181;49.246;7.372;2023-07-16T12:15:00;98923.22;;;25.08;41.96
47430;BME280;33181;49.246;7.372;2023-07-16T12:17:26;98905.66;;;25.50;42.16
47430;BME280;33181;49.246;7.372;2023-07-16T12:19:51;98903.94;;;25.94;40.79
47430;BME280;33181;49.246;7.372;2023-07-16T12:22:18;98911.91;;;25.82;40.69
47430;BME280;33181;49.246;7.372;2023-07-16T12:24:45;98912.22;;;25.29;42.18
47430;BME280;33181;49.246;7.372;2023-07-16T12:27:11;98909.88;;;24.88;41.63
47430;BME280;33181;49.246;7.372;2023-07-16T12:29:37;98911.69;;;25.01;39.08
47430;BME280;33181;49.246;7.372;2023-07-16T12:32:03;98910.06;;;25.45;39.62
47430;BME280;33181;49.246;7.372;2023-07-16T12:34:29;98897.91;;;25.67;39.90
47430;BME280;33181;49.246;7.372;2023-07-16T12:36:54;98907.72;;;25.86;39.98
47430;BME280;33181;49.246;7.372;2023-07-16T12:39:21;98909.00;;;26.09;39.76
47430;BME280;33181;49.246;7.372;2023-07-16T12:41:47;98905.59;;;26.39;39.66
47430;BME280;33181;49.246;7.372;2023-07-16T12:44:13;98896.41;;;26.46;38.34
47430;BME280;33181;49.246;7.372;2023-07-16T12:46:38;98896.81;;;25.75;39.87
47430;BME280;33181;49.246;7.372;2023-07-16T12:49:04;98900.91;;;26.09;40.07
47430;BME280;33181;49.246;7.372;2023-07-16T12:51:30;98895.91;;;25.87;40.04
47430;BME280;33181;49.246;7.372;2023-07-16T12:53:55;98897.06;;;26.48;40.31
47430;BME280;33181;49.246;7.372;2023-07-16T12:56:21;98899.09;;;26.90;39.27
47430;BME280;33181;49.246;7.372;2023-07-16T12:58:50;98901.53;;;26.54;37.36
47430;BME280;33181;49.246;7.372;2023-07-16T13:01:16;98902.41;;;26.30;38.01
47430;BME280;33181;49.246;7.372;2023-07-16T13:03:42;98886.88;;;26.87;39.19
47430;BME280;33181;49.246;7.372;2023-07-16T13:06:09;98897.72;;;27.17;37.67